Ebenezer, Pennsylvania
Current Conditions -  °F | °C
As of 3:05 AM on Tuesday 27 Jan 2015 (Local Time) from KMUI Reporting Station
Unknown Precip Unknown Precip  
Wind Chill: 15°   Ceiling: 3900
Heat Index: 27°   Visibility: 10mi
Dew Point: 18°   Wind: 14mph
Humidity: 69%   Direction: 350°N
Pressure: 29.74"   Gusts: 22mph
Location:  40.2957°N, 76.4189°W
Report Text: KMUI 270805Z AUTO 35012G19KT 10SM UP OVC039 M03/M08 A2974 RMK AO2 UPE0805
Loading
Personal Weather Stations






























Interactive Weather Map New forecast layout! Learn more

10-Day Weather Forecast

Advertisements
Track Severe Weather on mobile